createdAt,value
2022-09-30T00:00:20.107Z,84.00
2022-09-30T00:01:52.406Z,84.03
2022-09-30T00:03:24.906Z,84.33
2022-09-30T00:04:57.075Z,84.57
2022-09-30T00:06:30.298Z,84.63
2022-09-30T00:08:02.354Z,84.62
2022-09-30T00:09:34.469Z,84.75
2022-09-30T00:11:07.694Z,84.69
2022-09-30T00:12:40.050Z,84.60
2022-09-30T00:14:16.529Z,84.53
2022-09-30T00:15:48.696Z,84.48
2022-09-30T00:17:21.364Z,84.50
2022-09-30T00:18:55.757Z,84.22
2022-09-30T00:20:27.789Z,84.17
2022-09-30T00:21:59.878Z,84.26
2022-09-30T00:25:10.820Z,84.04
2022-09-30T00:26:43.046Z,84.23
2022-09-30T00:28:16.261Z,84.24
2022-09-30T00:29:48.341Z,84.33
2022-09-30T00:31:21.248Z,84.10
2022-09-30T00:32:53.342Z,84.09
2022-09-30T00:34:25.464Z,84.22
2022-09-30T00:35:57.640Z,84.25
2022-09-30T00:37:29.669Z,84.24
2022-09-30T00:39:01.894Z,84.23
2022-09-30T00:40:34.032Z,84.46
2022-09-30T00:42:12.481Z,84.13
2022-09-30T00:43:53.875Z,84.14
2022-09-30T00:45:28.086Z,84.00
2022-09-30T00:47:00.301Z,84.19
2022-09-30T00:48:39.607Z,83.86
2022-09-30T00:50:35.667Z,84.02
2022-09-30T00:52:07.725Z,83.90
2022-09-30T00:53:47.589Z,83.88
2022-09-30T00:55:34.327Z,83.61
2022-09-30T00:57:08.567Z,83.72
2022-09-30T00:58:45.813Z,83.77
2022-09-30T01:00:17.837Z,83.79
2022-09-30T01:01:50.269Z,83.93
2022-09-30T01:03:23.094Z,83.91
2022-09-30T01:04:56.539Z,83.96
2022-09-30T01:06:29.053Z,84.00
2022-09-30T01:08:02.663Z,83.95
2022-09-30T01:09:36.487Z,84.01
2022-09-30T01:11:08.615Z,84.06
2022-09-30T01:12:40.890Z,84.05
2022-09-30T01:14:19.001Z,84.11
2022-09-30T01:16:18.478Z,84.04
2022-09-30T01:18:08.493Z,83.96
2022-09-30T01:19:40.594Z,83.85
2022-09-30T01:21:37.408Z,83.66
2022-09-30T01:23:41.527Z,83.49
2022-09-30T01:25:56.463Z,83.32
2022-09-30T01:29:42.870Z,83.19
2022-09-30T01:31:26.732Z,83.12
2022-09-30T01:33:01.550Z,83.08
2022-09-30T01:34:43.396Z,83.14
2022-09-30T01:36:35.027Z,83.08
2022-09-30T01:38:34.109Z,82.92
2022-09-30T01:40:14.735Z,82.81
2022-09-30T01:41:56.334Z,82.65
2022-09-30T01:43:38.822Z,82.82
2022-09-30T01:45:23.122Z,82.95
2022-09-30T01:47:22.457Z,82.96
2022-09-30T01:49:20.744Z,82.68
2022-09-30T01:50:55.664Z,82.28
2022-09-30T01:52:40.614Z,82.56
2022-09-30T01:54:19.307Z,82.46
2022-09-30T01:55:56.424Z,82.34
2022-09-30T01:57:35.601Z,82.42
2022-09-30T01:59:23.904Z,82.12
2022-09-30T02:00:59.936Z,82.23
2022-09-30T02:02:34.023Z,81.92
2022-09-30T02:04:17.314Z,81.27
2022-09-30T02:06:06.840Z,80.97
2022-09-30T02:07:45.837Z,80.95
2022-09-30T02:09:28.136Z,80.43
2022-09-30T02:11:08.541Z,80.10
2022-09-30T02:12:48.061Z,79.79
2022-09-30T02:14:26.525Z,79.73
2022-09-30T02:16:13.266Z,79.58
2022-09-30T02:17:53.867Z,79.05
2022-09-30T02:19:37.916Z,78.92
2022-09-30T02:21:11.215Z,79.41
2022-09-30T02:22:45.167Z,79.08
2022-09-30T02:24:18.406Z,78.79
2022-09-30T02:25:56.588Z,78.97
2022-09-30T02:27:40.727Z,78.95
2022-09-30T02:29:19.304Z,79.09
2022-09-30T02:30:52.752Z,79.43
2022-09-30T02:32:33.962Z,79.32
2022-09-30T02:34:14.069Z,79.56
2022-09-30T02:35:50.292Z,79.49
2022-09-30T02:37:29.001Z,79.70
2022-09-30T02:39:07.348Z,79.67
2022-09-30T02:40:43.776Z,79.77
2022-09-30T02:43:58.667Z,79.74
2022-09-30T02:45:35.228Z,79.71
2022-09-30T02:47:16.983Z,79.79
2022-09-30T02:49:26.126Z,79.86
2022-09-30T02:51:02.454Z,79.92
2022-09-30T02:52:47.423Z,79.77
2022-09-30T02:54:39.156Z,80.13
2022-09-30T02:56:22.770Z,79.64
2022-09-30T02:58:17.894Z,79.70
2022-09-30T02:59:52.462Z,80.06
2022-09-30T03:01:25.391Z,79.90
2022-09-30T03:03:02.028Z,80.06
2022-09-30T03:04:35.428Z,80.07
2022-09-30T03:06:07.440Z,79.94
2022-09-30T03:07:40.988Z,80.13
2022-09-30T03:09:13.123Z,80.32
2022-09-30T03:10:45.596Z,80.34
2022-09-30T03:12:41.726Z,80.10
2022-09-30T03:14:37.234Z,80.45
2022-09-30T03:16:17.862Z,80.75
2022-09-30T03:18:01.125Z,80.70
2022-09-30T03:20:07.062Z,80.95
2022-09-30T03:22:07.032Z,80.72
2022-09-30T03:24:12.967Z,80.87
2022-09-30T03:25:57.289Z,81.26
2022-09-30T03:28:00.840Z,81.01
2022-09-30T03:29:45.527Z,81.05
2022-09-30T03:31:40.687Z,81.23
2022-09-30T03:33:25.800Z,81.06
2022-09-30T03:35:14.951Z,81.18
2022-09-30T03:37:03.902Z,81.41
2022-09-30T03:39:05.729Z,80.98
2022-09-30T03:40:50.230Z,81.18
2022-09-30T03:42:39.002Z,81.52
2022-09-30T03:44:22.529Z,81.62
2022-09-30T03:46:10.237Z,81.65
2022-09-30T03:47:45.679Z,81.45
2022-09-30T03:49:22.767Z,81.27
2022-09-30T03:50:55.391Z,81.53
2022-09-30T03:52:28.305Z,81.48
2022-09-30T03:54:00.378Z,81.71
2022-09-30T03:55:33.780Z,81.69
2022-09-30T03:57:06.001Z,81.63
2022-09-30T03:58:41.930Z,81.85
2022-09-30T04:00:14.236Z,81.74
2022-09-30T04:01:46.278Z,81.75
2022-09-30T04:03:19.934Z,81.68
2022-09-30T04:04:52.020Z,81.59
2022-09-30T04:06:25.992Z,81.56
2022-09-30T04:07:57.946Z,81.43
2022-09-30T04:09:29.971Z,81.39
2022-09-30T04:12:39.574Z,81.39
2022-09-30T04:14:11.576Z,81.29
2022-09-30T04:15:43.627Z,81.38
2022-09-30T04:17:15.649Z,81.58
2022-09-30T04:18:47.717Z,81.49
2022-09-30T04:20:20.108Z,81.63
2022-09-30T04:21:55.830Z,81.53
2022-09-30T04:23:27.862Z,81.82
2022-09-30T04:24:59.834Z,81.92
2022-09-30T04:26:31.843Z,82.13
2022-09-30T04:28:03.917Z,82.06
2022-09-30T04:29:36.196Z,82.01
2022-09-30T04:31:12.485Z,81.86
2022-09-30T04:32:45.775Z,81.87
2022-09-30T04:34:17.776Z,81.93
2022-09-30T04:35:54.208Z,82.01
2022-09-30T04:37:26.200Z,81.99
2022-09-30T04:38:58.348Z,81.96
2022-09-30T04:40:30.367Z,82.19
2022-09-30T04:42:02.381Z,82.25
2022-09-30T04:43:34.874Z,82.12
2022-09-30T04:45:07.594Z,81.78
2022-09-30T04:46:39.713Z,81.63
2022-09-30T04:48:15.487Z,81.77
2022-09-30T04:49:47.831Z,81.86
2022-09-30T04:51:21.769Z,81.93
2022-09-30T04:52:56.599Z,82.04
2022-09-30T04:54:28.756Z,82.16
2022-09-30T04:56:01.630Z,82.25
2022-09-30T04:57:33.670Z,82.46
2022-09-30T04:59:05.983Z,82.65
2022-09-30T05:00:38.788Z,82.66
2022-09-30T05:02:13.126Z,82.77
2022-09-30T05:03:45.822Z,82.82
2022-09-30T05:05:18.558Z,82.95
2022-09-30T05:06:50.665Z,83.09
2022-09-30T05:08:23.402Z,83.21
2022-09-30T05:16:44.585Z,83.52
2022-09-30T05:18:16.977Z,83.48
2022-09-30T05:19:49.103Z,83.46
2022-09-30T05:21:21.283Z,83.53
2022-09-30T05:22:56.865Z,83.41
2022-09-30T05:24:30.433Z,83.40
2022-09-30T05:26:05.031Z,83.51
2022-09-30T05:27:38.948Z,83.39
2022-09-30T05:29:11.436Z,83.32
2022-09-30T05:30:44.156Z,83.53
2022-09-30T05:32:16.433Z,83.38
2022-09-30T05:33:48.651Z,83.46
2022-09-30T05:35:20.756Z,83.20
2022-09-30T05:36:53.558Z,82.96
2022-09-30T05:38:25.694Z,83.20
2022-09-30T05:39:57.748Z,83.29
2022-09-30T05:41:30.930Z,83.29
2022-09-30T05:43:02.911Z,83.19
2022-09-30T05:44:35.027Z,83.08
2022-09-30T05:46:07.385Z,82.72
2022-09-30T05:47:39.892Z,82.69
2022-09-30T05:49:11.876Z,82.34
2022-09-30T05:52:15.685Z,82.38
2022-09-30T05:53:47.913Z,82.43
2022-09-30T05:55:22.524Z,81.48
2022-09-30T05:56:54.616Z,81.17
2022-09-30T05:58:27.739Z,80.86
2022-09-30T05:59:59.800Z,79.38
2022-09-30T06:01:32.099Z,78.39
2022-09-30T06:03:04.361Z,77.66
2022-09-30T06:04:37.241Z,77.01
2022-09-30T06:06:10.213Z,77.10
2022-09-30T06:07:42.638Z,76.87
2022-09-30T06:09:14.921Z,76.89
2022-09-30T06:10:47.227Z,76.84
2022-09-30T06:12:19.250Z,77.26
2022-09-30T06:13:52.128Z,77.74
2022-09-30T06:15:24.440Z,76.96
2022-09-30T06:16:56.471Z,76.83
2022-09-30T06:18:30.101Z,76.86
2022-09-30T06:20:05.276Z,76.52
2022-09-30T06:21:37.528Z,75.24
2022-09-30T06:23:09.814Z,74.75
2022-09-30T06:24:42.324Z,73.30
2022-09-30T06:26:15.112Z,72.61
2022-09-30T06:27:47.969Z,72.97
2022-09-30T06:29:20.119Z,72.87
2022-09-30T06:30:52.431Z,72.48
2022-09-30T06:32:26.649Z,72.16
2022-09-30T06:33:58.755Z,71.58
2022-09-30T06:35:31.083Z,72.04
2022-09-30T06:37:03.455Z,71.89
2022-09-30T06:38:37.540Z,71.21
2022-09-30T06:40:10.109Z,70.77
2022-09-30T06:41:44.663Z,70.05
2022-09-30T06:43:20.340Z,69.80
2022-09-30T06:44:53.580Z,69.60
2022-09-30T06:46:30.631Z,69.77
2022-09-30T06:48:05.974Z,69.50
2022-09-30T06:49:47.957Z,69.19
2022-09-30T06:51:21.794Z,69.44
2022-09-30T06:52:59.640Z,69.82
2022-09-30T06:54:31.943Z,69.43
2022-09-30T06:56:05.452Z,69.33
2022-09-30T06:57:37.617Z,68.99
2022-09-30T06:59:09.932Z,69.59
2022-09-30T07:00:42.267Z,69.41
2022-09-30T07:02:14.739Z,68.36
2022-09-30T07:03:52.645Z,68.39
2022-09-30T07:05:26.881Z,68.10
2022-09-30T07:06:59.181Z,67.25
2022-09-30T07:08:32.735Z,67.50
2022-09-30T07:10:05.437Z,67.14
2022-09-30T07:11:39.247Z,65.61
2022-09-30T07:13:11.415Z,64.85
2022-09-30T07:14:43.635Z,64.49
2022-09-30T07:16:17.958Z,64.37
2022-09-30T07:17:54.279Z,64.98
2022-09-30T07:19:26.681Z,63.94
2022-09-30T07:20:58.917Z,63.71
2022-09-30T07:22:32.529Z,63.38
2022-09-30T07:24:04.780Z,63.91
2022-09-30T07:25:37.105Z,63.39
2022-09-30T07:27:09.473Z,63.16
2022-09-30T07:28:41.783Z,61.98
2022-09-30T07:30:21.540Z,61.46
2022-09-30T07:31:57.424Z,61.57
2022-09-30T07:33:31.829Z,61.60
2022-09-30T07:35:04.469Z,61.56
2022-09-30T07:36:40.716Z,61.23
2022-09-30T07:38:13.034Z,60.75
2022-09-30T07:39:47.525Z,60.41
2022-09-30T07:41:24.939Z,59.29
2022-09-30T07:42:58.162Z,58.48
2022-09-30T07:44:30.500Z,58.37
2022-09-30T07:46:11.667Z,60.78
2022-09-30T07:47:44.048Z,58.80
2022-09-30T07:49:25.222Z,57.36
2022-09-30T07:51:00.973Z,56.70
2022-09-30T07:52:33.167Z,54.85
2022-09-30T07:54:12.074Z,55.70
2022-09-30T07:55:44.458Z,53.48
2022-09-30T07:57:16.809Z,53.70
2022-09-30T07:58:49.956Z,53.32
2022-09-30T08:00:41.556Z,52.31
2022-09-30T08:02:20.152Z,51.67
2022-09-30T08:03:57.579Z,53.12
2022-09-30T08:05:29.865Z,52.57
2022-09-30T08:07:02.731Z,52.18
2022-09-30T08:08:37.324Z,52.14
2022-09-30T08:10:10.260Z,48.95
2022-09-30T08:11:43.437Z,48.33
2022-09-30T08:13:17.157Z,48.88
2022-09-30T08:14:49.889Z,48.03
2022-09-30T08:16:23.525Z,47.58
2022-09-30T08:17:56.017Z,48.00
2022-09-30T08:19:30.065Z,47.34
2022-09-30T08:21:06.803Z,46.32
2022-09-30T08:22:39.190Z,45.44
2022-09-30T08:25:44.741Z,45.41
2022-09-30T08:27:17.090Z,45.19
2022-09-30T08:28:49.509Z,45.27
2022-09-30T08:30:21.719Z,45.15
2022-09-30T08:31:54.274Z,44.83
2022-09-30T08:33:26.625Z,45.03
2022-09-30T08:34:58.997Z,42.59
2022-09-30T08:36:31.391Z,41.84
2022-09-30T08:38:04.269Z,42.47
2022-09-30T08:39:39.266Z,43.17
2022-09-30T08:41:27.132Z,43.24
2022-09-30T08:43:25.237Z,42.08
2022-09-30T08:45:17.498Z,41.31
2022-09-30T08:46:51.151Z,40.19
2022-09-30T08:48:25.990Z,40.99
2022-09-30T08:50:06.143Z,40.37
2022-09-30T08:51:42.376Z,39.11
2022-09-30T08:53:21.617Z,39.16
2022-09-30T08:54:55.644Z,39.84
2022-09-30T08:56:32.982Z,39.24
2022-09-30T08:58:05.818Z,38.51
2022-09-30T08:59:43.485Z,39.09
2022-09-30T09:01:15.953Z,38.13
2022-09-30T09:02:56.955Z,38.02
2022-09-30T09:04:29.152Z,38.86
2022-09-30T09:06:19.505Z,38.57
2022-09-30T09:08:03.865Z,38.48
2022-09-30T09:09:44.851Z,39.14
2022-09-30T09:11:42.803Z,38.69
2022-09-30T09:13:30.685Z,38.07
2022-09-30T09:15:37.995Z,37.24
2022-09-30T09:18:10.920Z,37.58
2022-09-30T09:19:57.614Z,37.52
2022-09-30T09:21:52.741Z,36.82
2022-09-30T09:23:26.536Z,37.55
2022-09-30T09:24:59.947Z,37.58
2022-09-30T09:26:37.472Z,37.15
2022-09-30T09:29:01.118Z,37.26
2022-09-30T09:30:37.131Z,37.42
2022-09-30T09:32:14.997Z,36.20
2022-09-30T09:33:47.719Z,37.06
2022-09-30T09:35:26.501Z,37.58
2022-09-30T09:37:17.568Z,37.01
2022-09-30T09:39:02.520Z,37.49
2022-09-30T09:41:10.372Z,36.81
2022-09-30T09:42:46.688Z,36.71
2022-09-30T09:44:28.051Z,36.53
2022-09-30T09:46:14.145Z,36.21
2022-09-30T09:47:51.984Z,36.78
2022-09-30T09:49:24.514Z,36.64
2022-09-30T09:50:59.984Z,36.35
2022-09-30T09:52:44.077Z,35.61
2022-09-30T09:54:21.466Z,36.25
2022-09-30T09:55:59.760Z,37.06
2022-09-30T09:57:32.854Z,36.49
2022-09-30T09:59:05.589Z,36.40
2022-09-30T10:00:47.117Z,35.03
2022-09-30T10:02:38.981Z,35.54
2022-09-30T10:04:16.186Z,35.68
2022-09-30T10:06:07.753Z,35.38
2022-09-30T10:07:40.126Z,35.48
2022-09-30T10:09:33.253Z,35.09
2022-09-30T10:11:07.907Z,34.91
2022-09-30T10:12:42.227Z,34.78
2022-09-30T10:14:19.592Z,34.95
2022-09-30T10:15:54.961Z,34.63
2022-09-30T10:17:33.481Z,34.73
2022-09-30T10:19:23.842Z,34.54
2022-09-30T10:20:59.790Z,34.53
2022-09-30T10:24:29.329Z,34.61
2022-09-30T10:26:06.335Z,34.70
2022-09-30T10:27:40.769Z,34.11
2022-09-30T10:29:39.654Z,34.33
2022-09-30T10:31:18.812Z,34.09
2022-09-30T10:32:51.220Z,34.37
2022-09-30T10:34:40.897Z,33.97
2022-09-30T10:36:18.897Z,33.50
2022-09-30T10:37:55.459Z,34.14
2022-09-30T10:39:32.001Z,33.80
2022-09-30T10:41:06.425Z,33.76
2022-09-30T10:42:41.944Z,34.29
2022-09-30T10:44:22.953Z,35.46
2022-09-30T10:46:13.742Z,34.41
2022-09-30T10:47:51.687Z,34.24
2022-09-30T10:49:42.297Z,34.71
2022-09-30T10:51:34.539Z,34.34
2022-09-30T10:53:19.914Z,35.10
2022-09-30T10:55:00.984Z,34.74
2022-09-30T10:58:30.388Z,33.85
2022-09-30T11:00:08.679Z,34.65
2022-09-30T11:01:52.532Z,35.27
2022-09-30T11:03:43.689Z,35.10
2022-09-30T11:05:25.468Z,35.54
2022-09-30T11:07:27.663Z,35.89
2022-09-30T11:09:20.609Z,35.65
2022-09-30T11:11:10.652Z,35.15
2022-09-30T11:12:46.372Z,35.90
2022-09-30T11:14:30.898Z,36.23
2022-09-30T11:16:09.578Z,37.09
2022-09-30T11:17:55.161Z,36.45
2022-09-30T11:19:32.784Z,35.88
2022-09-30T11:21:13.687Z,34.98
2022-09-30T11:22:51.985Z,34.38
2022-09-30T11:24:33.629Z,34.52
2022-09-30T11:26:14.698Z,33.67
2022-09-30T11:28:17.316Z,34.02
2022-09-30T11:30:04.277Z,33.48
2022-09-30T11:32:10.548Z,33.11
2022-09-30T11:33:53.687Z,33.48
2022-09-30T11:35:51.599Z,34.07
2022-09-30T11:37:32.619Z,32.30
2022-09-30T11:39:29.125Z,32.73
2022-09-30T11:41:12.464Z,31.60
2022-09-30T11:43:08.935Z,32.34
2022-09-30T11:44:43.390Z,32.98
2022-09-30T11:46:18.578Z,31.23
2022-09-30T11:47:54.757Z,31.96
2022-09-30T11:49:42.365Z,32.64
2022-09-30T11:51:23.484Z,32.71
2022-09-30T11:53:04.768Z,32.66
2022-09-30T11:54:48.853Z,31.72
2022-09-30T11:56:25.315Z,32.26
2022-09-30T11:58:36.273Z,32.03
2022-09-30T12:00:02.493Z,31.31
2022-09-30T12:01:38.661Z,31.52
2022-09-30T12:03:25.516Z,30.64
2022-09-30T12:05:01.513Z,31.10
2022-09-30T12:07:00.313Z,30.87
2022-09-30T12:08:39.680Z,30.56
2022-09-30T12:10:21.982Z,31.29
2022-09-30T12:11:58.307Z,30.31
2022-09-30T12:13:36.966Z,31.19
2022-09-30T12:15:16.168Z,31.52
2022-09-30T12:16:49.239Z,31.70
2022-09-30T12:18:22.347Z,30.93
2022-09-30T12:19:56.988Z,31.55
2022-09-30T12:21:42.859Z,31.40
2022-09-30T12:23:18.847Z,31.38
2022-09-30T12:24:51.276Z,31.25
2022-09-30T12:26:23.607Z,30.44
2022-09-30T12:28:30.048Z,30.81
2022-09-30T12:30:18.216Z,30.96
2022-09-30T12:32:12.483Z,30.45
2022-09-30T12:34:05.738Z,30.99
2022-09-30T12:36:04.213Z,31.55
2022-09-30T12:37:45.802Z,31.90
2022-09-30T12:39:26.970Z,31.44
2022-09-30T12:41:47.498Z,30.61
2022-09-30T12:43:30.781Z,29.94
2022-09-30T12:45:14.979Z,30.00
2022-09-30T12:47:38.206Z,30.23
2022-09-30T12:49:18.382Z,30.77
2022-09-30T12:50:54.707Z,30.51
2022-09-30T12:52:27.485Z,30.76
2022-09-30T12:54:13.527Z,29.97
2022-09-30T12:55:46.443Z,30.49
2022-09-30T12:57:24.881Z,30.61
2022-09-30T12:58:58.312Z,30.89
2022-09-30T13:00:34.997Z,31.05
2022-09-30T13:02:08.882Z,31.67
2022-09-30T13:03:53.260Z,31.43
2022-09-30T13:06:58.354Z,31.62
2022-09-30T13:08:48.295Z,32.45
2022-09-30T13:10:29.373Z,32.19
2022-09-30T13:12:01.834Z,34.07
2022-09-30T13:13:59.810Z,35.29
2022-09-30T13:15:32.189Z,34.36
2022-09-30T13:17:07.584Z,34.62
2022-09-30T13:18:41.471Z,34.60
2022-09-30T13:20:51.135Z,32.71
2022-09-30T13:22:32.042Z,32.20
2022-09-30T13:24:06.128Z,31.70
2022-09-30T13:25:54.861Z,32.04
2022-09-30T13:27:40.653Z,32.63
2022-09-30T13:29:18.469Z,32.51
2022-09-30T13:30:50.825Z,31.51
2022-09-30T13:32:34.947Z,31.76
2022-09-30T13:34:13.128Z,31.94
2022-09-30T13:35:48.980Z,31.99
2022-09-30T13:37:36.454Z,31.61
2022-09-30T13:39:25.067Z,31.79
2022-09-30T13:41:02.959Z,31.81
2022-09-30T13:42:42.630Z,31.95
2022-09-30T13:44:18.373Z,32.17
2022-09-30T13:45:53.532Z,32.36
2022-09-30T13:47:34.499Z,32.17
2022-09-30T13:49:25.252Z,32.37
2022-09-30T13:51:00.315Z,32.65
2022-09-30T13:52:34.854Z,32.04
2022-09-30T13:54:11.802Z,31.88
2022-09-30T13:55:45.763Z,31.05
2022-09-30T13:57:26.971Z,31.69
2022-09-30T13:59:22.901Z,31.99
2022-09-30T14:00:59.443Z,32.23
2022-09-30T14:02:45.721Z,31.18
2022-09-30T14:04:27.025Z,31.35
2022-09-30T14:06:23.526Z,31.15
2022-09-30T14:08:23.318Z,31.55
2022-09-30T14:09:55.626Z,31.89
2022-09-30T14:11:45.111Z,32.10
2022-09-30T14:13:42.061Z,31.97
2022-09-30T14:15:57.660Z,31.62
2022-09-30T14:17:41.900Z,31.46
2022-09-30T14:19:52.556Z,31.73
2022-09-30T14:21:43.778Z,31.71
2022-09-30T14:23:17.931Z,32.65
2022-09-30T14:24:50.939Z,33.44
2022-09-30T14:26:22.839Z,33.28
2022-09-30T14:28:05.301Z,33.08
2022-09-30T14:29:37.475Z,32.97
2022-09-30T14:31:14.982Z,33.13
2022-09-30T14:32:53.325Z,33.49
2022-09-30T14:34:26.344Z,34.34
2022-09-30T14:38:09.888Z,35.76
2022-09-30T14:39:43.564Z,34.88
2022-09-30T14:41:25.178Z,33.84
2022-09-30T14:43:06.195Z,33.77
2022-09-30T14:44:39.361Z,33.40
2022-09-30T14:46:34.691Z,33.19
2022-09-30T14:48:19.754Z,33.24
2022-09-30T14:49:52.117Z,33.43
2022-09-30T14:51:24.436Z,33.19
2022-09-30T14:52:59.203Z,33.35
2022-09-30T14:54:32.788Z,33.46
2022-09-30T14:56:42.784Z,33.56
2022-09-30T14:58:44.032Z,33.02
2022-09-30T15:00:28.780Z,33.78
2022-09-30T15:02:03.532Z,33.41
2022-09-30T15:03:38.664Z,33.70
2022-09-30T15:05:14.248Z,34.03
2022-09-30T15:06:49.356Z,34.07
2022-09-30T15:08:22.822Z,33.94
2022-09-30T15:09:55.339Z,34.31
2022-09-30T15:11:27.679Z,34.29
2022-09-30T15:12:59.935Z,34.19
2022-09-30T15:14:33.475Z,34.28
2022-09-30T15:16:23.124Z,34.44
2022-09-30T15:17:58.197Z,34.46
2022-09-30T15:19:35.413Z,34.45
2022-09-30T15:21:15.866Z,34.76
2022-09-30T15:22:48.841Z,34.78
2022-09-30T15:24:23.919Z,34.95
2022-09-30T15:25:57.952Z,35.62
2022-09-30T15:27:31.572Z,35.60
2022-09-30T15:29:05.952Z,35.87
2022-09-30T15:30:38.656Z,36.85
2022-09-30T15:32:16.128Z,37.89
2022-09-30T15:33:48.434Z,38.63
2022-09-30T15:35:22.828Z,39.20
2022-09-30T15:37:08.357Z,40.45
2022-09-30T15:38:40.943Z,40.86
2022-09-30T15:40:34.043Z,41.20
2022-09-30T15:42:06.361Z,42.06
2022-09-30T15:43:43.934Z,43.29
2022-09-30T15:45:35.611Z,44.58
2022-09-30T15:47:09.842Z,47.05
2022-09-30T15:48:45.383Z,47.27
2022-09-30T15:50:44.102Z,47.25
2022-09-30T15:52:33.838Z,47.69
2022-09-30T15:54:15.555Z,48.45
2022-09-30T15:55:52.176Z,47.97
2022-09-30T15:57:48.657Z,48.85
2022-09-30T15:59:22.996Z,49.30
2022-09-30T16:01:23.742Z,50.53
2022-09-30T16:04:32.898Z,52.02
2022-09-30T16:06:07.607Z,51.93
2022-09-30T16:07:42.656Z,52.38
2022-09-30T16:09:21.176Z,52.45
2022-09-30T16:10:57.929Z,52.25
2022-09-30T16:12:34.429Z,53.09
2022-09-30T16:14:17.522Z,53.87
2022-09-30T16:15:51.483Z,54.41
2022-09-30T16:17:27.095Z,54.96
2022-09-30T16:19:01.681Z,55.01
2022-09-30T16:20:34.018Z,54.17
2022-09-30T16:22:06.633Z,55.03
2022-09-30T16:23:39.379Z,56.06
2022-09-30T16:25:17.459Z,55.86
2022-09-30T16:26:56.999Z,55.55
2022-09-30T16:28:29.393Z,56.19
2022-09-30T16:30:02.358Z,56.22
2022-09-30T16:31:34.940Z,56.21
2022-09-30T16:34:39.464Z,56.57
2022-09-30T16:36:12.628Z,56.89
2022-09-30T16:37:44.911Z,57.46
2022-09-30T16:39:17.837Z,57.23
2022-09-30T16:40:50.614Z,57.48
2022-09-30T16:42:23.104Z,57.52
2022-09-30T16:43:55.535Z,57.94
2022-09-30T16:45:29.246Z,57.68
2022-09-30T16:47:04.984Z,58.27
2022-09-30T16:48:40.241Z,58.72
2022-09-30T16:50:20.319Z,58.98
2022-09-30T16:51:55.728Z,59.30
2022-09-30T16:53:28.097Z,59.68
2022-09-30T16:55:03.288Z,60.04
2022-09-30T16:56:35.793Z,60.54
2022-09-30T16:58:11.555Z,60.43
2022-09-30T16:59:44.763Z,60.27
2022-09-30T17:01:20.701Z,60.86
2022-09-30T17:02:53.489Z,61.05
2022-09-30T17:04:27.334Z,60.82
2022-09-30T17:06:00.900Z,61.55
2022-09-30T17:07:33.139Z,61.58
2022-09-30T17:09:05.808Z,61.99
2022-09-30T17:10:38.083Z,62.36
2022-09-30T17:12:12.856Z,62.08
2022-09-30T17:13:45.474Z,62.14
2022-09-30T17:15:19.400Z,62.15
2022-09-30T17:16:52.607Z,62.78
2022-09-30T17:18:24.779Z,62.73
2022-09-30T17:19:57.421Z,62.68
2022-09-30T17:21:29.865Z,63.33
2022-09-30T17:23:06.919Z,63.59
2022-09-30T17:24:39.706Z,63.65
2022-09-30T17:26:14.576Z,63.98
2022-09-30T17:27:52.692Z,64.26
2022-09-30T17:29:32.214Z,64.26
2022-09-30T17:31:05.463Z,64.32
2022-09-30T17:32:37.860Z,64.64
2022-09-30T17:34:10.400Z,64.59
2022-09-30T17:35:42.965Z,65.11
2022-09-30T17:37:17.558Z,65.76
2022-09-30T17:38:54.091Z,66.11
2022-09-30T17:40:45.093Z,66.40
2022-09-30T17:42:35.781Z,66.40
2022-09-30T17:44:08.176Z,65.97
2022-09-30T17:45:42.993Z,66.55
2022-09-30T17:47:15.332Z,66.84
2022-09-30T17:48:47.815Z,67.00
2022-09-30T17:50:22.518Z,67.26
2022-09-30T17:51:54.761Z,67.21
2022-09-30T17:53:29.705Z,67.17
2022-09-30T17:55:02.097Z,66.91
2022-09-30T17:56:34.760Z,67.19
2022-09-30T17:58:08.105Z,67.04
2022-09-30T17:59:43.669Z,66.81
2022-09-30T18:01:18.181Z,66.91
2022-09-30T18:02:50.644Z,66.73
2022-09-30T18:04:25.175Z,66.88
2022-09-30T18:05:59.195Z,66.85
2022-09-30T18:07:31.771Z,67.05
2022-09-30T18:09:04.659Z,67.02
2022-09-30T18:10:38.465Z,67.09
2022-09-30T18:12:10.678Z,67.78
2022-09-30T18:13:43.143Z,67.94
2022-09-30T18:15:17.356Z,67.83
2022-09-30T18:16:49.870Z,68.08
2022-09-30T18:18:22.572Z,68.00
2022-09-30T18:19:54.906Z,68.14
2022-09-30T18:21:28.182Z,68.21
2022-09-30T18:23:00.243Z,68.23
2022-09-30T18:24:50.770Z,68.39
2022-09-30T18:26:24.368Z,68.48
2022-09-30T18:28:00.652Z,68.41
2022-09-30T18:29:33.159Z,68.70
2022-09-30T18:31:06.978Z,68.83
2022-09-30T18:34:23.959Z,69.02
2022-09-30T18:35:58.360Z,68.98
2022-09-30T18:37:33.623Z,69.16
2022-09-30T18:39:05.939Z,69.25
2022-09-30T18:40:43.745Z,68.98
2022-09-30T18:42:17.857Z,69.46
2022-09-30T18:43:51.813Z,69.29
2022-09-30T18:45:25.327Z,69.92
2022-09-30T18:46:58.532Z,69.80
2022-09-30T18:48:32.373Z,69.93
2022-09-30T18:50:06.882Z,69.63
2022-09-30T18:51:39.215Z,69.93
2022-09-30T18:53:13.176Z,69.85
2022-09-30T18:54:45.527Z,70.19
2022-09-30T18:56:20.976Z,70.51
2022-09-30T18:57:56.574Z,70.58
2022-09-30T18:59:30.223Z,70.52
2022-09-30T19:01:06.385Z,70.47
2022-09-30T19:02:42.266Z,70.55
2022-09-30T19:04:14.697Z,70.55
2022-09-30T19:05:47.090Z,70.72
2022-09-30T19:07:20.697Z,70.89
2022-09-30T19:08:53.205Z,70.87
2022-09-30T19:10:26.665Z,71.03
2022-09-30T19:12:00.450Z,71.00
2022-09-30T19:13:32.786Z,70.95
2022-09-30T19:15:06.571Z,70.79
2022-09-30T19:16:39.931Z,71.03
2022-09-30T19:18:12.451Z,71.14
2022-09-30T19:19:46.407Z,71.13
2022-09-30T19:21:20.851Z,71.18
2022-09-30T19:22:53.169Z,71.01
2022-09-30T19:24:27.495Z,71.25
2022-09-30T19:26:01.629Z,71.19
2022-09-30T19:27:36.482Z,71.48
2022-09-30T19:29:10.868Z,71.28
2022-09-30T19:30:43.275Z,71.38
2022-09-30T19:32:15.773Z,71.40
2022-09-30T19:33:56.072Z,71.34
2022-09-30T19:35:37.819Z,71.28
2022-09-30T19:37:22.615Z,71.68
2022-09-30T19:39:10.363Z,71.67
2022-09-30T19:40:44.028Z,71.70
2022-09-30T19:42:18.549Z,71.79
2022-09-30T19:43:51.112Z,71.96
2022-09-30T19:45:26.123Z,72.08
2022-09-30T19:46:58.789Z,72.02
2022-09-30T19:48:32.185Z,71.94
2022-09-30T19:50:04.859Z,72.06
2022-09-30T19:51:37.467Z,72.00
2022-09-30T19:53:10.433Z,72.26
2022-09-30T19:54:44.795Z,72.22
2022-09-30T19:56:20.576Z,72.35
2022-09-30T19:57:52.921Z,72.72
2022-09-30T19:59:25.204Z,72.70
2022-09-30T20:00:57.916Z,72.77
2022-09-30T20:02:30.189Z,72.77
2022-09-30T20:04:05.550Z,72.97
2022-09-30T20:07:10.036Z,73.29
2022-09-30T20:09:01.433Z,73.18
2022-09-30T20:10:34.011Z,73.46
2022-09-30T20:12:07.555Z,73.46
2022-09-30T20:13:40.069Z,73.74
2022-09-30T20:15:30.775Z,73.73
2022-09-30T20:17:03.086Z,73.73
2022-09-30T20:18:36.970Z,73.67
2022-09-30T20:20:28.362Z,73.75
2022-09-30T20:22:00.571Z,73.67
2022-09-30T20:23:39.571Z,73.90
2022-09-30T20:25:12.040Z,73.72
2022-09-30T20:26:45.080Z,73.95
2022-09-30T20:28:17.859Z,73.94
2022-09-30T20:29:50.477Z,73.96
2022-09-30T20:31:22.627Z,73.99
2022-09-30T20:32:55.169Z,74.00
2022-09-30T20:34:27.662Z,74.08
2022-09-30T20:36:05.827Z,74.15
2022-09-30T20:37:40.252Z,74.49
2022-09-30T20:39:13.160Z,74.20
2022-09-30T20:40:45.991Z,74.60
2022-09-30T20:42:18.494Z,74.55
2022-09-30T20:43:54.204Z,74.44
2022-09-30T20:45:28.433Z,74.51
2022-09-30T20:47:00.715Z,74.39
2022-09-30T20:48:35.169Z,74.47
2022-09-30T20:50:08.105Z,74.68
2022-09-30T20:51:40.453Z,74.97
2022-09-30T20:53:14.063Z,74.79
2022-09-30T20:54:46.139Z,74.92
2022-09-30T20:56:20.146Z,74.75
2022-09-30T20:57:54.173Z,74.75
2022-09-30T20:59:26.346Z,74.63
2022-09-30T21:01:03.982Z,74.84
2022-09-30T21:02:36.190Z,75.20
2022-09-30T21:04:08.299Z,75.15
2022-09-30T21:05:40.898Z,75.16
2022-09-30T21:07:12.965Z,75.12
2022-09-30T21:08:45.303Z,75.10
2022-09-30T21:10:20.926Z,75.29
2022-09-30T21:11:53.757Z,75.31
2022-09-30T21:13:26.430Z,75.23
2022-09-30T21:14:58.792Z,75.21
2022-09-30T21:16:31.584Z,75.38
2022-09-30T21:18:04.397Z,75.49
2022-09-30T21:19:36.709Z,75.56
2022-09-30T21:21:13.904Z,75.52
2022-09-30T21:22:46.659Z,75.61
2022-09-30T21:24:19.014Z,75.68
2022-09-30T21:26:04.336Z,75.49
2022-09-30T21:27:36.600Z,75.55
2022-09-30T21:29:08.706Z,75.68
2022-09-30T21:30:41.610Z,75.90
2022-09-30T21:32:14.151Z,75.78